Weather

*Note: Some stations are located near irrigated fields and may also report irrigation

Forrest Carberry Carberry North Wawanesa Glenboro Glenora Treherne Holland Gladstone Portage East High Bluff Elm Creek Carman Winkler Kuhl Farm Morris St.Adolphe Steinbach Selkirk Macdonald Shilo Rivers Somerset Reinland Altona Starbuck St.Pierre Winkler Kane Brunkild Austin Bagot Elie Kenton Neepawa St. Claude




Treherne - Historical Weather Data
Date Max Temp (°C) Min Temp (°C) Avg Temp (°C) Rain (mm) Avg RH (%)
7/18/2018 30.8 13.2 22.6 0.0 68.0
7/17/2018 26.4 5.9 16.9 0.0 69.0
7/16/2018 20.0 7.7 14.8 0.0 67.0
7/15/2018 24.1 10.8 18.4 0.0 56.0
7/14/2018 32.5 18.0 25.3 0.1 61.0
7/13/2018 30.6 15.3 23.2 0.0 66.0
7/12/2018 28.6 16.9 22.7 0.0 63.0
7/11/2018 26.4 18.9 22.7 18.3 80.0
7/10/2018 29.0 16.4 23.3 0.8 69.0
7/9/2018 27.9 10.4 20.2 0.0 65.0
7/8/2018 28.1 14.8 21.6 0.7 70.0
7/7/2018 32.7 21.3 26.4 0.0 70.0
7/6/2018 27.9 11.8 21.1 0.0 71.0
7/5/2018 25.3 10.3 17.9 0.0 67.0
7/4/2018 23.2 15.5 20.4 5.4 72.0
7/3/2018 26.6 10.2 19.0 0.0 78.0
7/2/2018 25.2 12.9 18.7 0.0 67.0
7/1/2018 25.6 12.1 17.8 1.6 76.0
6/30/2018 22.9 13.6 18.6 0.0 80.0
6/29/2018 24.5 14.8 20.2 12.7 75.0
6/28/2018 29.2 11.9 21.5 0.0 53.0
6/27/2018 26.6 - 22.5 0.0 42.0
6/26/2018 28.4 18.1 22.9 0.0 72.0
6/25/2018 24.0 14.4 19.1 0.0 84.0
6/24/2018 22.7 14.3 18.7 0.0 89.0
6/23/2018 27.6 15.1 19.9 1.5 77.0
6/22/2018 30.4 17.0 22.9 0.0 61.0
6/21/2018 31.7 17.1 23.7 0.0 51.0
6/20/2018 29.8 10.8 21.7 0.0 53.0
6/19/2018 28.3 11.9 20.1 0.0 55.0
6/18/2018 25.9 6.5 18.0 0.0 56.0
6/17/2018 24.3 11.4 18.8 0.0 58.0
6/16/2018 20.3 13.3 17.2 0.0 73.0
6/15/2018 26.2 15.3 21.0 0.4 66.0
6/14/2018 26.5 14.2 19.7 2.4 69.0
6/13/2018 26.9 7.9 18.9 0.4 43.0
6/12/2018 24.0 11.6 17.1 0.0 53.0
6/11/2018 22.0 12.3 17.9 1.6 68.0
6/10/2018 30.0 16.5 23.9 0.0 66.0
6/9/2018 24.0 14.8 20.0 0.0 83.0
6/8/2018 24.9 14.0 20.6 0.0 60.0
6/7/2018 28.2 13.1 20.7 0.0 43.0
6/6/2018 23.0 10.5 17.0 0.0 59.0
6/5/2018 27.0 10.0 19.0 0.0 53.0
6/4/2018 20.8 7.4 14.2 0.0 66.0
6/3/2018 21.6 7.9 14.2 0.0 63.0
6/2/2018 17.8 10.1 13.3 5.2 90.0
6/1/2018 14.9 10.3 12.3 14.9 90.0
5/31/2018 25.2 11.1 17.8 0.2 79.0
5/30/2018 18.6 16.0 17.3 2.3 91.0
5/29/2018 29.5 12.1 22.2 0.0 56.0
5/28/2018 26.6 10.7 20.2 0.0 52.0
5/27/2018 28.5 15.6 21.1 5.2 70.0
5/26/2018 27.1 15.3 20.8 0.0 69.0
5/25/2018 31.8 12.8 20.9 0.0 67.0
5/24/2018 29.7 14.9 20.3 8.5 74.0
5/23/2018 30.4 16.7 24.1 0.0 48.0
5/22/2018 29.9 13.5 22.0 0.0 45.0
5/21/2018 26.9 9.3 18.9 0.0 30.0
5/20/2018 26.0 5.7 16.6 0.0 35.0
5/19/2018 19.5 -1.2 10.2 0.0 51.0
5/18/2018 11.6 1.6 7.6 2.7 87.0
5/17/2018 13.7 6.6 8.8 1.6 69.0
5/16/2018 19.1 0.0 15.0 0.0 40.0
5/15/2018 31.7 3.6 19.1 0.0 31.0
5/14/2018 20.8 2.9 13.0 0.0 39.0
5/13/2018 27.5 10.2 18.6 0.0 38.0
5/12/2018 23.0 3.6 14.1 0.0 24.0
5/11/2018 15.9 1.5 8.9 0.0 25.0
5/10/2018 10.3 -7.6 3.8 0.0 36.0
5/9/2018 16.8 1.3 10.1 0.0 54.0
5/8/2018 20.8 8.6 14.2 0.0 39.0
5/7/2018 31.1 8.3 20.6 0.0 30.0
5/6/2018 23.0 5.0 14.8 0.0 36.0
5/5/2018 19.4 8.0 13.5 0.1 43.0
5/4/2018 20.6 6.6 14.1 0.0 36.0
5/3/2018 22.7 1.2 13.1 0.0 49.0
5/2/2018 17.1 -3.7 7.4 1.2 64.0
5/1/2018 4.1 -0.3 1.4 0.0 89.0